createdAt,value
2018-09-17T00:01:55.150Z,12.71
2018-09-17T00:04:22.920Z,12.64
2018-09-17T00:06:51.060Z,12.67
2018-09-17T00:09:18.796Z,12.66
2018-09-17T00:11:46.724Z,12.62
2018-09-17T00:14:14.480Z,12.59
2018-09-17T00:16:42.241Z,12.56
2018-09-17T00:19:10.020Z,12.58
2018-09-17T00:21:37.780Z,12.50
2018-09-17T00:24:06.187Z,12.58
2018-09-17T00:26:34.365Z,12.61
2018-09-17T00:29:02.165Z,12.58
2018-09-17T00:31:29.912Z,12.62
2018-09-17T00:33:57.740Z,12.54
2018-09-17T00:36:25.504Z,12.55
2018-09-17T00:38:53.244Z,12.53
2018-09-17T00:41:21.057Z,12.46
2018-09-17T00:43:49.072Z,12.36
2018-09-17T00:46:16.896Z,12.35
2018-09-17T00:48:44.684Z,12.29
2018-09-17T00:51:12.852Z,12.27
2018-09-17T00:53:40.595Z,12.21
2018-09-17T00:56:08.327Z,12.23
2018-09-17T00:58:36.020Z,12.24
2018-09-17T01:01:03.865Z,12.20
2018-09-17T01:03:31.653Z,12.22
2018-09-17T01:05:59.424Z,12.17
2018-09-17T01:08:27.193Z,12.10
2018-09-17T01:10:55.000Z,12.12
2018-09-17T01:13:22.732Z,12.07
2018-09-17T01:15:50.448Z,12.00
2018-09-17T01:18:18.157Z,12.03
2018-09-17T01:20:45.890Z,11.98
2018-09-17T01:23:13.612Z,12.00
2018-09-17T01:25:41.348Z,11.97
2018-09-17T01:28:09.244Z,11.94
2018-09-17T01:30:37.010Z,11.89
2018-09-17T01:33:04.940Z,11.91
2018-09-17T01:35:32.692Z,11.90
2018-09-17T01:38:00.388Z,11.86
2018-09-17T01:40:28.354Z,11.82
2018-09-17T01:42:56.069Z,11.86
2018-09-17T01:45:24.044Z,11.79
2018-09-17T01:47:51.813Z,11.70
2018-09-17T01:50:19.637Z,11.65
2018-09-17T01:52:47.412Z,11.59
2018-09-17T01:55:15.149Z,11.60
2018-09-17T01:57:42.873Z,11.58
2018-09-17T02:00:10.672Z,11.47
2018-09-17T02:02:38.480Z,11.52
2018-09-17T02:05:06.571Z,11.57
2018-09-17T02:07:34.392Z,11.60
2018-09-17T02:10:02.274Z,11.62
2018-09-17T02:12:30.036Z,11.65
2018-09-17T02:14:57.776Z,11.65
2018-09-17T02:17:25.656Z,11.63
2018-09-17T02:19:53.851Z,11.57
2018-09-17T02:22:21.604Z,11.59
2018-09-17T02:24:49.433Z,11.55
2018-09-17T02:27:17.235Z,11.57
2018-09-17T02:29:45.442Z,11.54
2018-09-17T02:32:13.227Z,11.48
2018-09-17T02:34:41.028Z,11.50
2018-09-17T02:37:08.797Z,11.48
2018-09-17T02:39:36.704Z,11.48
2018-09-17T02:42:04.724Z,11.31
2018-09-17T02:44:32.444Z,11.33
2018-09-17T02:47:00.169Z,11.35
2018-09-17T02:49:27.944Z,11.28
2018-09-17T02:51:55.729Z,11.21
2018-09-17T02:54:23.553Z,11.14
2018-09-17T02:56:51.334Z,11.11
2018-09-17T02:59:19.072Z,11.10
2018-09-17T03:01:46.852Z,11.08
2018-09-17T03:04:14.612Z,11.12
2018-09-17T03:06:42.632Z,11.15
2018-09-17T03:09:10.796Z,11.17
2018-09-17T03:11:38.571Z,11.15
2018-09-17T03:14:06.632Z,11.08
2018-09-17T03:16:45.651Z,11.07
2018-09-17T03:19:13.444Z,11.03
2018-09-17T03:21:41.224Z,11.07
2018-09-17T03:24:09.340Z,11.05
2018-09-17T03:26:37.125Z,10.95
2018-09-17T03:29:04.973Z,10.94
2018-09-17T03:31:32.928Z,10.95
2018-09-17T03:34:00.620Z,10.94
2018-09-17T03:36:28.357Z,10.95
2018-09-17T03:38:56.153Z,10.90
2018-09-17T03:41:23.953Z,10.87
2018-09-17T03:43:52.252Z,10.79
2018-09-17T03:46:20.495Z,10.65
2018-09-17T03:48:48.420Z,10.74
2018-09-17T03:51:16.709Z,10.70
2018-09-17T03:53:45.194Z,10.70
2018-09-17T03:56:12.984Z,10.68
2018-09-17T03:58:40.773Z,10.68
2018-09-17T04:01:09.032Z,10.64
2018-09-17T04:03:36.820Z,10.59
2018-09-17T04:06:04.630Z,10.63
2018-09-17T04:08:32.910Z,10.64
2018-09-17T04:11:00.705Z,10.56
2018-09-17T04:13:28.640Z,10.51
2018-09-17T04:15:56.489Z,10.53
2018-09-17T04:18:24.444Z,10.54
2018-09-17T04:20:52.240Z,10.57
2018-09-17T04:23:37.211Z,10.53
2018-09-17T04:26:06.678Z,10.54
2018-09-17T04:28:35.068Z,10.51
2018-09-17T04:31:03.176Z,10.41
2018-09-17T04:33:33.220Z,10.42
2018-09-17T04:36:01.024Z,10.30
2018-09-17T04:38:28.914Z,10.36
2018-09-17T04:40:56.736Z,10.43
2018-09-17T04:43:24.450Z,10.38
2018-09-17T04:45:52.199Z,10.33
2018-09-17T04:48:20.005Z,10.28
2018-09-17T04:50:47.723Z,10.29
2018-09-17T04:53:15.590Z,10.30
2018-09-17T04:55:43.460Z,10.34
2018-09-17T04:58:11.230Z,10.32
2018-09-17T05:00:38.952Z,10.37
2018-09-17T05:03:06.707Z,10.33
2018-09-17T05:05:34.518Z,10.39
2018-09-17T05:08:03.108Z,10.36
2018-09-17T05:10:31.112Z,10.39
2018-09-17T05:12:58.979Z,10.37
2018-09-17T05:15:26.668Z,10.33
2018-09-17T05:17:54.512Z,10.33
2018-09-17T05:20:22.264Z,10.40
2018-09-17T05:22:50.068Z,10.40
2018-09-17T05:25:17.820Z,10.41
2018-09-17T05:27:45.625Z,10.40
2018-09-17T05:30:13.436Z,10.52
2018-09-17T05:32:41.297Z,10.58
2018-09-17T05:35:09.199Z,10.61
2018-09-17T05:37:36.900Z,10.65
2018-09-17T05:40:04.828Z,10.70
2018-09-17T05:42:32.592Z,10.74
2018-09-17T05:45:00.409Z,10.75
2018-09-17T05:47:28.291Z,10.77
2018-09-17T05:49:56.080Z,10.76
2018-09-17T05:52:23.864Z,10.84
2018-09-17T05:54:51.608Z,10.81
2018-09-17T05:57:19.417Z,10.93
2018-09-17T05:59:47.184Z,11.05
2018-09-17T06:02:14.991Z,11.09
2018-09-17T06:04:42.880Z,11.15
2018-09-17T06:07:10.712Z,11.09
2018-09-17T06:09:38.473Z,11.11
2018-09-17T06:12:06.448Z,11.17
2018-09-17T06:14:34.375Z,11.37
2018-09-17T06:17:02.040Z,11.59
2018-09-17T06:19:29.889Z,11.81
2018-09-17T06:21:57.773Z,11.95
2018-09-17T06:24:25.563Z,12.11
2018-09-17T06:26:53.336Z,13.59
2018-09-17T06:29:21.062Z,15.48
2018-09-17T06:31:48.888Z,17.70
2018-09-17T06:34:16.710Z,19.16
2018-09-17T06:36:44.536Z,19.94
2018-09-17T06:39:12.400Z,20.57
2018-09-17T06:41:40.235Z,21.58
2018-09-17T06:44:08.145Z,22.80
2018-09-17T06:46:35.924Z,23.27
2018-09-17T06:49:03.700Z,23.98
2018-09-17T06:51:32.409Z,23.48
2018-09-17T06:54:00.101Z,25.28
2018-09-17T06:56:27.811Z,26.85
2018-09-17T06:58:55.619Z,25.98
2018-09-17T07:01:23.416Z,27.06
2018-09-17T07:03:51.164Z,28.03
2018-09-17T07:06:18.969Z,28.86
2018-09-17T07:08:46.729Z,29.50
2018-09-17T07:11:14.528Z,30.17
2018-09-17T07:13:42.357Z,31.08
2018-09-17T07:16:10.112Z,31.28
2018-09-17T07:18:38.200Z,31.83
2018-09-17T07:21:06.188Z,32.42
2018-09-17T07:23:34.548Z,32.96
2018-09-17T07:26:02.529Z,33.32
2018-09-17T07:28:30.283Z,33.86
2018-09-17T07:30:58.300Z,34.18
2018-09-17T07:33:26.016Z,34.59
2018-09-17T07:35:53.776Z,34.63
2018-09-17T07:38:22.242Z,34.98
2018-09-17T07:40:50.016Z,34.92
2018-09-17T07:43:17.860Z,34.02
2018-09-17T07:45:45.659Z,34.54
2018-09-17T07:48:13.617Z,34.77
2018-09-17T07:50:42.013Z,35.16
2018-09-17T07:53:10.220Z,35.36
2018-09-17T07:55:38.528Z,34.90
2018-09-17T07:58:06.505Z,35.11
2018-09-17T08:00:34.260Z,35.51
2018-09-17T08:03:02.044Z,35.66
2018-09-17T08:05:29.792Z,35.25
2018-09-17T08:07:57.573Z,36.57
2018-09-17T08:10:26.068Z,37.45
2018-09-17T08:12:53.899Z,38.35
2018-09-17T08:15:22.140Z,37.84
2018-09-17T08:17:51.148Z,39.06
2018-09-17T08:20:19.024Z,40.29
2018-09-17T08:22:46.880Z,36.97
2018-09-17T08:25:14.738Z,38.83
2018-09-17T08:27:42.552Z,39.33
2018-09-17T08:30:10.440Z,38.22
2018-09-17T08:32:38.576Z,35.64
2018-09-17T08:35:07.464Z,36.64
2018-09-17T08:37:35.820Z,34.55
2018-09-17T08:40:04.212Z,36.70
2018-09-17T08:42:31.952Z,38.67
2018-09-17T08:44:59.772Z,38.74
2018-09-17T08:47:28.023Z,39.77
2018-09-17T08:49:55.814Z,40.18
2018-09-17T08:52:23.684Z,40.39
2018-09-17T08:54:57.246Z,40.42
2018-09-17T08:57:35.752Z,40.47
2018-09-17T09:00:11.820Z,41.23
2018-09-17T09:02:43.369Z,35.63
2018-09-17T09:05:17.472Z,35.47
2018-09-17T09:07:50.876Z,35.64
2018-09-17T09:10:25.700Z,39.28
2018-09-17T09:13:00.097Z,40.53
2018-09-17T09:15:35.125Z,41.33
2018-09-17T09:18:03.466Z,41.73
2018-09-17T09:20:31.300Z,42.32
2018-09-17T09:22:59.396Z,42.98
2018-09-17T09:25:27.232Z,43.49
2018-09-17T09:27:55.046Z,39.18
2018-09-17T09:30:22.976Z,38.22
2018-09-17T09:32:50.848Z,39.69
2018-09-17T09:35:19.436Z,41.46
2018-09-17T09:37:47.256Z,39.58
2018-09-17T09:40:15.318Z,36.74
2018-09-17T09:42:43.741Z,39.23
2018-09-17T09:45:11.732Z,37.00
2018-09-17T09:47:39.772Z,38.83
2018-09-17T09:50:07.760Z,40.03
2018-09-17T09:52:35.613Z,40.43
2018-09-17T09:55:03.430Z,38.66
2018-09-17T09:57:31.176Z,37.16
2018-09-17T09:59:58.985Z,37.05
2018-09-17T10:02:35.337Z,37.68
2018-09-17T10:05:04.371Z,36.13
2018-09-17T10:07:32.152Z,39.01
2018-09-17T10:10:05.596Z,38.59
2018-09-17T10:12:39.032Z,34.75
2018-09-17T10:15:12.524Z,36.89
2018-09-17T10:17:45.993Z,38.68
2018-09-17T10:20:13.789Z,39.43
2018-09-17T10:22:41.781Z,39.39
2018-09-17T10:25:09.544Z,38.04
2018-09-17T10:27:38.049Z,36.22
2018-09-17T10:30:06.342Z,35.47
2018-09-17T10:32:34.096Z,35.60
2018-09-17T10:35:01.892Z,35.33
2018-09-17T10:37:29.696Z,34.97
2018-09-17T10:39:57.559Z,34.53
2018-09-17T10:42:25.334Z,34.10
2018-09-17T10:44:53.192Z,34.48
2018-09-17T10:47:20.944Z,35.00
2018-09-17T10:49:48.805Z,34.91
2018-09-17T10:52:16.680Z,34.67
2018-09-17T10:54:44.648Z,34.42
2018-09-17T10:57:12.449Z,34.85
2018-09-17T10:59:40.270Z,34.76
2018-09-17T11:02:08.040Z,35.16
2018-09-17T11:04:36.001Z,34.99
2018-09-17T11:07:03.812Z,35.33
2018-09-17T11:09:31.600Z,35.29
2018-09-17T11:11:59.408Z,34.46
2018-09-17T11:14:27.263Z,34.46
2018-09-17T11:16:55.029Z,34.34
2018-09-17T11:19:22.834Z,32.75
2018-09-17T11:21:50.672Z,33.31
2018-09-17T11:24:18.616Z,33.08
2018-09-17T11:26:46.498Z,33.97
2018-09-17T11:29:14.352Z,34.29
2018-09-17T11:31:42.150Z,35.29
2018-09-17T11:34:10.564Z,34.29
2018-09-17T11:36:38.394Z,33.49
2018-09-17T11:39:09.889Z,32.66
2018-09-17T11:41:37.740Z,32.02
2018-09-17T11:44:05.552Z,32.89
2018-09-17T11:46:33.381Z,33.04
2018-09-17T11:49:01.904Z,33.70
2018-09-17T11:51:29.768Z,33.77
2018-09-17T11:53:57.662Z,33.88
2018-09-17T11:56:25.344Z,34.05
2018-09-17T11:58:53.160Z,33.52
2018-09-17T12:01:26.561Z,33.39
2018-09-17T12:04:00.081Z,34.03
2018-09-17T12:06:33.569Z,34.24
2018-09-17T12:09:01.515Z,34.33
2018-09-17T12:11:29.800Z,35.25
2018-09-17T12:13:57.884Z,34.47
2018-09-17T12:16:25.584Z,35.98
2018-09-17T12:18:53.401Z,35.98
2018-09-17T12:21:21.473Z,34.98
2018-09-17T12:23:49.249Z,34.74
2018-09-17T12:26:17.026Z,34.19
2018-09-17T12:28:45.117Z,34.91
2018-09-17T12:31:12.985Z,35.87
2018-09-17T12:33:40.807Z,35.55
2018-09-17T12:36:08.624Z,36.49
2018-09-17T12:38:36.420Z,34.95
2018-09-17T12:41:04.220Z,35.95
2018-09-17T12:43:31.956Z,35.49
2018-09-17T12:45:59.824Z,35.42
2018-09-17T12:48:27.556Z,35.22
2018-09-17T12:50:55.268Z,35.58
2018-09-17T12:53:23.270Z,35.77
2018-09-17T12:55:51.060Z,35.36
2018-09-17T12:58:18.806Z,34.98
2018-09-17T13:00:46.504Z,34.94
2018-09-17T13:03:14.470Z,35.88
2018-09-17T13:05:42.259Z,35.72
2018-09-17T13:08:10.040Z,34.71
2018-09-17T13:10:37.817Z,35.03
2018-09-17T13:13:05.672Z,35.23
2018-09-17T13:15:36.998Z,35.04
2018-09-17T13:18:05.112Z,34.62
2018-09-17T13:20:32.917Z,35.49
2018-09-17T13:23:00.845Z,35.40
2018-09-17T13:25:28.656Z,35.36
2018-09-17T13:27:56.457Z,36.77
2018-09-17T13:30:24.268Z,37.07
2018-09-17T13:32:52.644Z,36.34
2018-09-17T13:35:20.389Z,35.57
2018-09-17T13:37:48.171Z,36.35
2018-09-17T13:40:16.177Z,37.02
2018-09-17T13:42:43.941Z,36.57
2018-09-17T13:45:11.729Z,36.18
2018-09-17T13:47:39.554Z,35.46
2018-09-17T13:50:07.354Z,35.40
2018-09-17T13:52:35.120Z,36.08
2018-09-17T13:55:03.627Z,35.11
2018-09-17T13:57:31.393Z,35.65
2018-09-17T13:59:59.636Z,35.56
2018-09-17T14:02:27.536Z,35.83
2018-09-17T14:04:55.508Z,36.29
2018-09-17T14:07:23.220Z,36.52
2018-09-17T14:09:51.009Z,36.24
2018-09-17T14:12:19.065Z,34.99
2018-09-17T14:14:46.821Z,35.00
2018-09-17T14:17:14.615Z,35.23
2018-09-17T14:19:42.452Z,33.81
2018-09-17T14:22:10.204Z,32.90
2018-09-17T14:24:38.059Z,33.75
2018-09-17T14:27:05.849Z,32.83
2018-09-17T14:29:33.716Z,33.47
2018-09-17T14:32:07.370Z,32.79
2018-09-17T14:34:35.056Z,32.55
2018-09-17T14:37:02.856Z,31.28
2018-09-17T14:39:30.609Z,30.93
2018-09-17T14:41:58.385Z,30.93
2018-09-17T14:44:26.136Z,31.10
2018-09-17T14:46:53.920Z,31.00
2018-09-17T14:49:21.638Z,30.32
2018-09-17T14:51:49.620Z,30.43
2018-09-17T14:54:17.411Z,30.25
2018-09-17T14:56:45.260Z,30.22
2018-09-17T14:59:13.232Z,30.34
2018-09-17T15:01:41.135Z,30.48
2018-09-17T15:04:08.906Z,30.43
2018-09-17T15:06:36.592Z,30.10
2018-09-17T15:09:07.694Z,29.96
2018-09-17T15:11:35.501Z,29.64
2018-09-17T15:14:03.344Z,29.40
2018-09-17T15:16:31.191Z,29.42
2018-09-17T15:18:58.968Z,29.28
2018-09-17T15:21:26.752Z,28.89
2018-09-17T15:23:54.619Z,28.87
2018-09-17T15:26:22.398Z,28.81
2018-09-17T15:28:50.148Z,28.97
2018-09-17T15:31:18.049Z,29.00
2018-09-17T15:33:45.779Z,29.04
2018-09-17T15:36:13.651Z,28.95
2018-09-17T15:38:41.407Z,28.80
2018-09-17T15:41:09.408Z,28.68
2018-09-17T15:43:36.991Z,28.52
2018-09-17T15:46:04.814Z,28.33
2018-09-17T15:48:32.548Z,28.26
2018-09-17T15:51:00.252Z,28.20
2018-09-17T15:53:27.988Z,28.14
2018-09-17T15:55:55.814Z,28.13
2018-09-17T15:58:23.595Z,27.75
2018-09-17T16:00:51.328Z,27.89
2018-09-17T16:03:19.066Z,27.66
2018-09-17T16:05:46.902Z,27.55
2018-09-17T16:08:14.728Z,27.24
2018-09-17T16:10:42.511Z,27.23
2018-09-17T16:13:10.369Z,27.20
2018-09-17T16:15:38.122Z,27.12
2018-09-17T16:18:05.884Z,26.89
2018-09-17T16:20:33.681Z,26.76
2018-09-17T16:23:01.413Z,26.64
2018-09-17T16:25:29.234Z,26.41
2018-09-17T16:27:57.089Z,26.21
2018-09-17T16:30:24.808Z,26.10
2018-09-17T16:32:52.492Z,25.93
2018-09-17T16:35:20.237Z,25.68
2018-09-17T16:37:47.964Z,25.53
2018-09-17T16:40:15.763Z,25.26
2018-09-17T16:42:43.948Z,25.16
2018-09-17T16:45:11.645Z,24.97
2018-09-17T16:47:39.440Z,24.82
2018-09-17T16:50:07.263Z,24.67
2018-09-17T16:52:35.037Z,24.58
2018-09-17T16:55:02.915Z,24.51
2018-09-17T16:57:30.705Z,24.42
2018-09-17T16:59:58.505Z,24.36
2018-09-17T17:02:26.370Z,24.17
2018-09-17T17:04:54.342Z,24.15
2018-09-17T17:07:22.040Z,24.06
2018-09-17T17:09:49.823Z,23.96
2018-09-17T17:12:17.551Z,23.81
2018-09-17T17:14:45.336Z,23.67
2018-09-17T17:17:13.081Z,23.56
2018-09-17T17:19:40.876Z,23.39
2018-09-17T17:22:08.944Z,23.20
2018-09-17T17:24:36.668Z,23.01
2018-09-17T17:27:04.470Z,22.84
2018-09-17T17:29:32.252Z,22.65
2018-09-17T17:31:59.977Z,22.49
2018-09-17T17:34:27.669Z,22.31
2018-09-17T17:36:55.481Z,22.11
2018-09-17T17:39:23.340Z,22.01
2018-09-17T17:41:51.243Z,21.89
2018-09-17T17:44:18.965Z,21.77
2018-09-17T17:46:46.684Z,21.63
2018-09-17T17:49:14.428Z,21.47
2018-09-17T17:51:42.254Z,21.41
2018-09-17T17:54:09.952Z,21.33
2018-09-17T17:56:37.678Z,21.23
2018-09-17T17:59:05.749Z,20.88
2018-09-17T18:01:33.540Z,20.85
2018-09-17T18:04:01.642Z,20.76
2018-09-17T18:06:29.277Z,20.67
2018-09-17T18:08:57.096Z,20.49
2018-09-17T18:11:24.835Z,20.40
2018-09-17T18:13:52.636Z,20.37
2018-09-17T18:16:25.010Z,20.13
2018-09-17T18:18:52.748Z,19.90
2018-09-17T18:21:20.562Z,19.87
2018-09-17T18:23:48.243Z,19.72
2018-09-17T18:26:16.053Z,19.61
2018-09-17T18:28:43.900Z,19.53
2018-09-17T18:31:11.552Z,19.57
2018-09-17T18:33:39.515Z,19.59
2018-09-17T18:36:07.321Z,19.62
2018-09-17T18:38:35.048Z,19.52
2018-09-17T18:41:02.848Z,19.47
2018-09-17T18:43:30.628Z,19.36
2018-09-17T18:45:58.396Z,19.31
2018-09-17T18:48:26.315Z,19.24
2018-09-17T18:50:54.017Z,19.16
2018-09-17T18:53:21.680Z,19.11
2018-09-17T18:55:49.559Z,19.05
2018-09-17T18:58:17.360Z,18.95
2018-09-17T19:00:45.133Z,18.95
2018-09-17T19:03:13.013Z,18.91
2018-09-17T19:05:40.761Z,18.93
2018-09-17T19:08:08.556Z,18.84
2018-09-17T19:10:36.352Z,18.77
2018-09-17T19:13:04.189Z,18.77
2018-09-17T19:15:37.568Z,18.75
2018-09-17T19:18:11.182Z,18.62
2018-09-17T19:20:39.120Z,18.48
2018-09-17T19:23:12.503Z,18.42
2018-09-17T19:25:40.310Z,18.34
2018-09-17T19:28:13.810Z,18.32
2018-09-17T19:30:41.624Z,18.28
2018-09-17T19:33:09.384Z,18.22
2018-09-17T19:35:37.204Z,18.15
2018-09-17T19:38:10.810Z,18.09
2018-09-17T19:40:38.492Z,18.05
2018-09-17T19:43:06.508Z,17.95
2018-09-17T19:45:40.065Z,17.92
2018-09-17T19:48:07.966Z,17.96
2018-09-17T19:50:41.429Z,17.94
2018-09-17T19:53:09.272Z,17.91
2018-09-17T19:55:37.102Z,17.78
2018-09-17T19:58:10.600Z,17.68
2018-09-17T20:00:38.516Z,17.54
2018-09-17T20:03:06.394Z,17.48
2018-09-17T20:05:40.243Z,17.50
2018-09-17T20:08:08.005Z,17.46
2018-09-17T20:10:35.729Z,17.40
2018-09-17T20:13:03.480Z,17.42
2018-09-17T20:15:31.232Z,17.36
2018-09-17T20:17:59.020Z,17.36
2018-09-17T20:20:26.868Z,17.19
2018-09-17T20:22:54.582Z,17.12
2018-09-17T20:25:22.324Z,17.15
2018-09-17T20:27:50.069Z,17.16
2018-09-17T20:30:17.821Z,16.96
2018-09-17T20:32:45.856Z,17.02
2018-09-17T20:35:13.613Z,17.03
2018-09-17T20:37:41.424Z,17.06
2018-09-17T20:40:09.145Z,16.97
2018-09-17T20:42:37.191Z,16.92
2018-09-17T20:45:05.033Z,16.82
2018-09-17T20:47:32.804Z,16.81
2018-09-17T20:50:00.621Z,16.80
2018-09-17T20:52:28.421Z,16.65
2018-09-17T20:54:56.258Z,16.70
2018-09-17T20:57:24.290Z,16.72
2018-09-17T20:59:52.045Z,16.64
2018-09-17T21:02:19.793Z,16.55
2018-09-17T21:04:47.569Z,16.53
2018-09-17T21:07:15.375Z,16.51
2018-09-17T21:09:43.193Z,16.43
2018-09-17T21:12:10.965Z,16.40
2018-09-17T21:14:38.654Z,16.27
2018-09-17T21:17:06.418Z,16.28
2018-09-17T21:19:34.339Z,16.14
2018-09-17T21:22:01.947Z,16.15
2018-09-17T21:24:29.668Z,16.15
2018-09-17T21:26:57.480Z,16.09
2018-09-17T21:29:25.257Z,15.87
2018-09-17T21:31:52.994Z,15.96
2018-09-17T21:34:20.672Z,15.91
2018-09-17T21:36:48.472Z,15.90
2018-09-17T21:39:16.108Z,15.79
2018-09-17T21:41:43.896Z,15.85
2018-09-17T21:44:11.672Z,15.79
2018-09-17T21:46:39.424Z,15.77
2018-09-17T21:49:07.432Z,15.69
2018-09-17T21:51:35.229Z,15.67
2018-09-17T21:54:03.080Z,15.65
2018-09-17T21:56:30.841Z,15.56
2018-09-17T21:58:58.595Z,15.55
2018-09-17T22:01:26.316Z,15.51
2018-09-17T22:03:54.153Z,15.57
2018-09-17T22:06:21.924Z,15.56
2018-09-17T22:08:49.691Z,15.56
2018-09-17T22:11:17.516Z,15.58
2018-09-17T22:13:45.341Z,15.54
2018-09-17T22:16:13.032Z,15.50
2018-09-17T22:18:40.812Z,15.46
2018-09-17T22:21:08.616Z,15.26
2018-09-17T22:23:37.340Z,15.33
2018-09-17T22:26:05.172Z,15.30
2018-09-17T22:28:33.034Z,15.30
2018-09-17T22:31:00.792Z,15.25
2018-09-17T22:33:28.620Z,15.22
2018-09-17T22:35:56.500Z,15.27
2018-09-17T22:38:24.244Z,15.25
2018-09-17T22:40:52.050Z,15.08
2018-09-17T22:43:20.156Z,15.07
2018-09-17T22:45:47.944Z,15.09
2018-09-17T22:48:15.732Z,14.97
2018-09-17T22:50:43.511Z,14.96
2018-09-17T22:53:11.270Z,14.82
2018-09-17T22:55:39.146Z,14.84
2018-09-17T22:58:06.888Z,14.87
2018-09-17T23:00:34.655Z,14.86
2018-09-17T23:03:02.547Z,14.81
2018-09-17T23:05:30.364Z,14.86
2018-09-17T23:07:58.128Z,14.89
2018-09-17T23:10:25.884Z,14.84
2018-09-17T23:12:53.691Z,14.83
2018-09-17T23:15:21.492Z,14.83
2018-09-17T23:17:49.284Z,14.83
2018-09-17T23:20:17.032Z,14.85
2018-09-17T23:22:44.748Z,14.83
2018-09-17T23:25:12.697Z,14.78
2018-09-17T23:27:40.500Z,14.81
2018-09-17T23:30:08.358Z,14.74
2018-09-17T23:32:36.120Z,14.65
2018-09-17T23:35:03.988Z,14.74
2018-09-17T23:37:31.747Z,14.72
2018-09-17T23:39:59.896Z,14.75
2018-09-17T23:42:27.643Z,14.84
2018-09-17T23:44:55.352Z,14.82
2018-09-17T23:47:23.125Z,14.72
2018-09-17T23:49:50.917Z,14.71
2018-09-17T23:52:18.614Z,14.68
2018-09-17T23:54:46.376Z,14.66
2018-09-17T23:57:14.112Z,14.60
2018-09-17T23:59:42.283Z,14.53
